createdAt,value
2023-04-18T00:00:28.167Z,16.77
2023-04-18T00:03:00.920Z,15.15
2023-04-18T00:05:30.907Z,21.33
2023-04-18T00:08:00.725Z,17.03
2023-04-18T00:10:30.524Z,14.45
2023-04-18T00:13:00.626Z,14.55
2023-04-18T00:15:31.097Z,14.23
2023-04-18T00:18:02.619Z,17.67
2023-04-18T00:20:32.934Z,13.65
2023-04-18T00:23:02.725Z,13.63
2023-04-18T00:25:32.622Z,14.40
2023-04-18T00:28:02.177Z,14.38
2023-04-18T00:30:31.733Z,15.68
2023-04-18T00:33:01.772Z,18.10
2023-04-18T00:35:32.002Z,13.27
2023-04-18T00:38:01.773Z,14.23
2023-04-18T00:40:31.441Z,17.87
2023-04-18T00:43:01.394Z,13.43
2023-04-18T00:45:31.531Z,18.97
2023-04-18T00:48:01.639Z,16.80
2023-04-18T00:50:32.084Z,16.77
2023-04-18T00:53:02.035Z,18.00
2023-04-18T00:55:32.301Z,16.70
2023-04-18T00:58:02.357Z,15.07
2023-04-18T01:00:33.139Z,16.52
2023-04-18T01:03:03.477Z,18.00
2023-04-18T01:05:35.683Z,13.98
2023-04-18T01:08:08.463Z,17.23
2023-04-18T01:10:39.026Z,13.90
2023-04-18T01:13:19.475Z,17.50
2023-04-18T01:15:50.872Z,14.20
2023-04-18T01:18:20.844Z,14.60
2023-04-18T01:20:53.115Z,14.80
2023-04-18T01:23:22.894Z,16.13
2023-04-18T01:25:52.884Z,13.83
2023-04-18T01:28:22.776Z,11.70
2023-04-18T01:30:52.560Z,16.23
2023-04-18T01:33:22.806Z,17.20
2023-04-18T01:35:52.899Z,16.25
2023-04-18T01:38:23.865Z,13.78
2023-04-18T01:40:53.854Z,14.70
2023-04-18T01:43:24.637Z,14.93
2023-04-18T01:45:54.704Z,18.17
2023-04-18T01:48:24.420Z,14.57
2023-04-18T01:50:54.235Z,13.67
2023-04-18T01:53:25.426Z,13.80
2023-04-18T01:55:55.274Z,15.87
2023-04-18T01:58:26.669Z,18.30
2023-04-18T02:00:59.724Z,14.57
2023-04-18T02:03:29.724Z,18.57
2023-04-18T02:06:00.561Z,15.00
2023-04-18T02:08:30.876Z,14.85
2023-04-18T02:11:01.356Z,14.43
2023-04-18T02:13:31.405Z,17.63
2023-04-18T02:16:01.218Z,19.33
2023-04-18T02:18:32.666Z,14.47
2023-04-18T02:21:02.443Z,14.33
2023-04-18T02:23:32.244Z,15.27
2023-04-18T02:26:02.087Z,14.20
2023-04-18T02:28:31.649Z,16.45
2023-04-18T02:31:01.551Z,14.90
2023-04-18T02:33:31.478Z,14.70
2023-04-18T02:36:01.793Z,14.83
2023-04-18T02:38:31.911Z,14.65
2023-04-18T02:41:01.725Z,15.90
2023-04-18T02:43:31.787Z,12.77
2023-04-18T02:46:03.291Z,14.93
2023-04-18T02:48:33.212Z,14.47
2023-04-18T02:51:07.291Z,16.15
2023-04-18T02:53:38.668Z,14.38
2023-04-18T02:56:10.597Z,13.18
2023-04-18T02:58:59.954Z,13.93
2023-04-18T03:01:31.590Z,14.33
2023-04-18T03:04:03.272Z,14.30
2023-04-18T03:06:34.814Z,14.33
2023-04-18T03:09:05.175Z,14.50
2023-04-18T03:11:36.302Z,17.63
2023-04-18T03:14:06.252Z,16.17
2023-04-18T03:16:37.859Z,13.87
2023-04-18T03:19:07.743Z,15.48
2023-04-18T03:21:37.806Z,17.53
2023-04-18T03:24:11.976Z,14.33
2023-04-18T03:26:41.915Z,11.87
2023-04-18T03:29:12.068Z,15.33
2023-04-18T03:31:43.148Z,14.30
2023-04-18T03:34:14.119Z,15.85
2023-04-18T03:36:46.555Z,18.75
2023-04-18T03:39:16.348Z,17.00
2023-04-18T03:41:46.543Z,13.57
2023-04-18T03:44:16.660Z,19.25
2023-04-18T03:46:47.619Z,21.67
2023-04-18T03:49:17.734Z,14.60
2023-04-18T03:51:48.482Z,13.77
2023-04-18T03:54:18.462Z,13.67
2023-04-18T03:56:47.981Z,18.60
2023-04-18T03:59:18.226Z,19.20
2023-04-18T04:01:49.293Z,15.90
2023-04-18T04:04:19.873Z,15.13
2023-04-18T04:06:49.636Z,18.50
2023-04-18T04:09:19.525Z,15.13
2023-04-18T04:11:49.635Z,12.63
2023-04-18T04:14:19.481Z,19.33
2023-04-18T04:16:50.091Z,16.02
2023-04-18T04:19:20.010Z,15.37
2023-04-18T04:22:11.118Z,15.07
2023-04-18T04:24:42.025Z,13.73
2023-04-18T04:27:12.614Z,16.40
2023-04-18T04:29:43.686Z,16.10
2023-04-18T04:32:16.833Z,14.98
2023-04-18T04:34:46.691Z,16.47
2023-04-18T04:37:18.156Z,15.83
2023-04-18T04:39:49.940Z,16.77
2023-04-18T04:42:28.406Z,15.60
2023-04-18T04:45:09.369Z,13.33
2023-04-18T04:47:39.317Z,19.63
2023-04-18T04:50:13.714Z,14.83
2023-04-18T04:52:44.341Z,16.20
2023-04-18T04:55:13.992Z,17.52
2023-04-18T04:57:44.909Z,13.67
2023-04-18T05:00:25.312Z,17.30
2023-04-18T05:02:57.376Z,19.03
2023-04-18T05:05:28.114Z,14.80
2023-04-18T05:07:57.903Z,15.00
2023-04-18T05:10:27.599Z,13.87
2023-04-18T05:12:58.155Z,16.95
2023-04-18T05:15:27.824Z,13.70
2023-04-18T05:18:00.654Z,17.05
2023-04-18T05:20:30.486Z,14.57
2023-04-18T05:23:00.335Z,13.83
2023-04-18T05:25:31.410Z,13.90
2023-04-18T05:28:04.714Z,14.45
2023-04-18T05:30:34.531Z,16.53
2023-04-18T05:33:04.795Z,14.95
2023-04-18T05:35:34.799Z,13.60
2023-04-18T05:38:04.958Z,15.05
2023-04-18T05:40:35.022Z,14.87
2023-04-18T05:43:05.374Z,22.55
2023-04-18T05:45:35.806Z,15.70
2023-04-18T05:48:06.042Z,14.15
2023-04-18T05:50:35.866Z,17.73
2023-04-18T05:53:06.019Z,15.88
2023-04-18T05:55:36.188Z,14.73
2023-04-18T05:58:06.603Z,16.50
2023-04-18T06:00:36.620Z,14.20
2023-04-18T06:03:09.248Z,15.63
2023-04-18T06:05:38.542Z,14.80
2023-04-18T06:08:08.754Z,15.72
2023-04-18T06:10:39.218Z,17.02
2023-04-18T06:13:09.476Z,14.95
2023-04-18T06:15:39.290Z,13.20
2023-04-18T06:18:09.457Z,15.00
2023-04-18T06:20:39.753Z,16.13
2023-04-18T06:23:09.894Z,15.65
2023-04-18T06:25:42.986Z,13.50
2023-04-18T06:28:13.104Z,14.80
2023-04-18T06:30:42.930Z,16.23
2023-04-18T06:33:12.754Z,13.07
2023-04-18T06:35:42.797Z,14.13
2023-04-18T06:38:13.564Z,12.53
2023-04-18T06:40:43.678Z,15.88
2023-04-18T06:43:13.448Z,13.13
2023-04-18T06:45:43.053Z,13.68
2023-04-18T06:48:14.264Z,16.13
2023-04-18T06:50:44.718Z,14.65
2023-04-18T06:53:15.374Z,15.30
2023-04-18T06:55:45.500Z,13.23
2023-04-18T06:58:16.876Z,14.63
2023-04-18T07:00:48.457Z,12.83
2023-04-18T07:03:18.612Z,16.90
2023-04-18T07:05:50.367Z,14.20
2023-04-18T07:08:20.053Z,12.60
2023-04-18T07:10:49.864Z,15.07
2023-04-18T07:13:19.664Z,12.53
2023-04-18T07:15:49.694Z,14.07
2023-04-18T07:18:30.276Z,15.43
2023-04-18T07:20:50.949Z,11.87
2023-04-18T07:23:20.510Z,12.60
2023-04-18T07:25:50.402Z,13.85
2023-04-18T07:28:20.913Z,14.23
2023-04-18T07:30:51.435Z,12.67
2023-04-18T07:33:21.270Z,14.17
2023-04-18T07:35:53.029Z,12.43
2023-04-18T07:38:23.275Z,14.63
2023-04-18T07:41:00.460Z,11.23
2023-04-18T07:43:30.437Z,11.17
2023-04-18T07:46:00.634Z,10.20
2023-04-18T07:48:30.179Z,24.63
2023-04-18T07:51:00.364Z,11.93
2023-04-18T07:53:30.169Z,9.80
2023-04-18T07:55:59.987Z,10.43
2023-04-18T07:58:29.638Z,9.07
2023-04-18T08:00:59.464Z,13.80
2023-04-18T08:03:29.722Z,12.37
2023-04-18T08:05:59.688Z,10.40
2023-04-18T08:08:29.329Z,10.97
2023-04-18T08:10:59.140Z,9.00
2023-04-18T08:13:29.447Z,12.45
2023-04-18T08:16:00.273Z,8.23
2023-04-18T08:18:30.136Z,11.07
2023-04-18T08:20:59.944Z,9.43
2023-04-18T08:23:29.831Z,9.73
2023-04-18T08:25:59.691Z,9.43
2023-04-18T08:28:29.212Z,11.48
2023-04-18T08:30:59.103Z,9.27
2023-04-18T08:33:29.887Z,8.33
2023-04-18T08:35:59.709Z,9.30
2023-04-18T08:38:29.566Z,9.33
2023-04-18T08:40:59.364Z,10.43
2023-04-18T08:43:30.550Z,11.40
2023-04-18T08:46:01.659Z,10.67
2023-04-18T08:48:31.495Z,9.77
2023-04-18T08:51:02.047Z,8.23
2023-04-18T08:53:33.423Z,7.50
2023-04-18T08:56:04.847Z,7.23
2023-04-18T08:58:34.859Z,8.17
2023-04-18T09:01:04.845Z,7.57
2023-04-18T09:03:40.479Z,7.67
2023-04-18T09:06:19.379Z,6.17
2023-04-18T09:08:59.443Z,9.48
2023-04-18T09:11:32.322Z,7.17
2023-04-18T09:14:02.567Z,8.03
2023-04-18T09:16:35.607Z,8.90
2023-04-18T09:19:18.300Z,6.47
2023-04-18T09:21:49.955Z,6.37
2023-04-18T09:24:26.423Z,7.60
2023-04-18T09:26:59.642Z,10.08
2023-04-18T09:29:43.370Z,7.27
2023-04-18T09:32:19.315Z,8.63
2023-04-18T09:34:49.403Z,10.78
2023-04-18T09:37:19.195Z,6.50
2023-04-18T09:39:50.620Z,13.60
2023-04-18T09:42:22.084Z,6.75
2023-04-18T09:45:08.788Z,8.25
2023-04-18T09:47:38.600Z,6.87
2023-04-18T09:50:10.706Z,9.57
2023-04-18T09:52:42.656Z,7.62
2023-04-18T09:55:17.800Z,17.45
2023-04-18T09:57:49.526Z,7.72
2023-04-18T10:00:27.308Z,9.13
2023-04-18T10:03:10.651Z,7.45
2023-04-18T10:05:41.380Z,6.53
2023-04-18T10:08:13.569Z,7.90
2023-04-18T10:10:44.284Z,6.73
2023-04-18T10:13:15.520Z,7.20
2023-04-18T10:15:46.018Z,7.80
2023-04-18T10:18:16.943Z,6.70
2023-04-18T10:20:48.471Z,10.10
2023-04-18T10:23:36.345Z,6.12
2023-04-18T10:26:08.131Z,8.07
2023-04-18T10:29:00.825Z,6.67
2023-04-18T10:31:32.714Z,6.77
2023-04-18T10:34:05.884Z,6.20
2023-04-18T10:36:35.971Z,6.03
2023-04-18T10:39:25.393Z,6.37
2023-04-18T10:41:55.251Z,6.87
2023-04-18T10:44:25.624Z,7.90
2023-04-18T10:46:58.885Z,7.40
2023-04-18T10:49:32.859Z,9.25
2023-04-18T10:52:06.001Z,6.53
2023-04-18T10:54:49.985Z,7.03
2023-04-18T10:57:19.794Z,7.63
2023-04-18T10:59:51.758Z,8.98
2023-04-18T11:02:30.258Z,7.40
2023-04-18T11:05:04.005Z,6.67
2023-04-18T11:07:41.545Z,9.83
2023-04-18T11:10:11.342Z,8.43
2023-04-18T11:12:42.345Z,9.93
2023-04-18T11:15:21.898Z,11.80
2023-04-18T11:18:02.706Z,13.33
2023-04-18T11:20:38.072Z,7.13
2023-04-18T11:23:13.054Z,7.87
2023-04-18T11:25:45.714Z,10.97
2023-04-18T11:28:22.177Z,7.98
2023-04-18T11:30:52.256Z,7.28
2023-04-18T11:33:22.149Z,8.60
2023-04-18T11:35:53.453Z,14.40
2023-04-18T11:38:26.307Z,10.78
2023-04-18T11:40:56.250Z,12.20
2023-04-18T11:43:26.809Z,10.50
2023-04-18T11:45:59.076Z,9.70
2023-04-18T11:48:38.705Z,13.40
2023-04-18T11:51:10.709Z,11.87
2023-04-18T11:53:40.431Z,10.10
2023-04-18T11:56:13.304Z,12.00
2023-04-18T11:58:43.537Z,12.63
2023-04-18T12:01:20.953Z,10.63
2023-04-18T12:04:05.612Z,8.77
2023-04-18T12:06:46.593Z,9.37
2023-04-18T12:09:17.676Z,11.37
2023-04-18T12:11:59.476Z,11.97
2023-04-18T12:14:29.583Z,12.65
2023-04-18T12:16:59.468Z,11.20
2023-04-18T12:19:32.602Z,10.60
2023-04-18T12:22:05.119Z,11.27
2023-04-18T12:24:36.036Z,11.43
2023-04-18T12:27:05.939Z,11.00
2023-04-18T12:29:35.910Z,10.77
2023-04-18T12:32:06.140Z,11.13
2023-04-18T12:34:35.971Z,12.18
2023-04-18T12:37:05.856Z,13.40
2023-04-18T12:39:36.102Z,12.85
2023-04-18T12:42:06.064Z,14.83
2023-04-18T12:44:36.328Z,12.37
2023-04-18T12:47:06.191Z,11.90
2023-04-18T12:49:36.328Z,13.88
2023-04-18T12:52:06.295Z,14.70
2023-04-18T12:54:37.985Z,17.52
2023-04-18T12:57:07.893Z,13.73
2023-04-18T12:59:37.696Z,13.17
2023-04-18T13:02:07.912Z,15.10
2023-04-18T13:04:37.997Z,13.63
2023-04-18T13:07:07.813Z,17.05
2023-04-18T13:09:37.992Z,14.93
2023-04-18T13:12:09.208Z,14.88
2023-04-18T13:14:39.533Z,16.57
2023-04-18T13:17:09.824Z,14.23
2023-04-18T13:19:39.360Z,17.15
2023-04-18T13:22:08.959Z,15.97
2023-04-18T13:24:38.801Z,14.37
2023-04-18T13:27:10.482Z,16.73
2023-04-18T13:29:41.096Z,15.93
2023-04-18T13:32:11.691Z,15.40
2023-04-18T13:34:46.908Z,17.30
2023-04-18T13:37:16.820Z,16.80
2023-04-18T13:39:46.630Z,16.03
2023-04-18T13:42:19.217Z,18.25
2023-04-18T13:44:50.050Z,15.47
2023-04-18T13:47:20.357Z,17.87
2023-04-18T13:49:50.185Z,17.43
2023-04-18T13:52:19.727Z,15.13
2023-04-18T13:54:49.853Z,17.37
2023-04-18T13:57:19.640Z,16.93
2023-04-18T13:59:49.485Z,17.60
2023-04-18T14:02:19.433Z,18.02
2023-04-18T14:04:49.413Z,16.67
2023-04-18T14:07:19.329Z,15.90
2023-04-18T14:09:49.119Z,16.80
2023-04-18T14:12:18.634Z,16.60
2023-04-18T14:14:48.566Z,16.23
2023-04-18T14:17:18.401Z,20.33
2023-04-18T14:19:49.284Z,19.25
2023-04-18T14:22:19.490Z,17.70
2023-04-18T14:24:50.946Z,19.37
2023-04-18T14:27:20.652Z,20.00
2023-04-18T14:29:50.610Z,17.23
2023-04-18T14:32:20.293Z,19.85
2023-04-18T14:34:50.332Z,20.20
2023-04-18T14:37:20.199Z,16.50
2023-04-18T14:39:49.754Z,15.15
2023-04-18T14:42:19.834Z,16.42
2023-04-18T14:44:49.649Z,17.47
2023-04-18T14:47:19.867Z,16.93
2023-04-18T14:49:49.705Z,16.40
2023-04-18T14:52:19.539Z,16.80
2023-04-18T14:54:49.347Z,16.83
2023-04-18T14:57:18.874Z,15.95
2023-04-18T14:59:49.582Z,19.87
2023-04-18T15:02:19.752Z,15.86
2023-04-18T15:04:49.929Z,19.60
2023-04-18T15:07:20.051Z,17.73
2023-04-18T15:09:49.607Z,18.75
2023-04-18T15:12:19.360Z,19.20
2023-04-18T15:14:49.487Z,17.02
2023-04-18T15:17:19.310Z,16.93
2023-04-18T15:19:49.110Z,15.50
2023-04-18T15:22:18.914Z,16.47
2023-04-18T15:24:48.783Z,14.53
2023-04-18T15:27:18.617Z,16.20
2023-04-18T15:29:48.132Z,14.33
2023-04-18T15:32:17.987Z,17.33
2023-04-18T15:34:47.809Z,15.83
2023-04-18T15:37:17.794Z,19.03
2023-04-18T15:39:47.621Z,15.43
2023-04-18T15:42:17.439Z,14.87
2023-04-18T15:44:47.029Z,13.95
2023-04-18T15:47:17.031Z,17.47
2023-04-18T15:49:46.854Z,15.50
2023-04-18T15:52:16.728Z,16.93
2023-04-18T15:54:46.539Z,14.67
2023-04-18T15:57:16.347Z,14.50
2023-04-18T15:59:46.186Z,14.67
2023-04-18T16:02:16.497Z,16.07
2023-04-18T16:04:46.291Z,17.00
2023-04-18T16:07:16.220Z,15.07
2023-04-18T16:09:45.833Z,14.20
2023-04-18T16:12:16.205Z,17.37
2023-04-18T16:14:46.016Z,18.33
2023-04-18T16:17:15.635Z,16.90
2023-04-18T16:19:45.436Z,13.30
2023-04-18T16:22:15.900Z,15.40
2023-04-18T16:24:45.791Z,15.83
2023-04-18T16:27:16.139Z,15.17
2023-04-18T16:29:47.106Z,14.80
2023-04-18T16:32:16.752Z,17.00
2023-04-18T16:34:46.623Z,13.10
2023-04-18T16:37:16.510Z,12.03
2023-04-18T16:39:46.305Z,17.03
2023-04-18T16:42:16.042Z,13.40
2023-04-18T16:44:47.110Z,14.23
2023-04-18T16:47:16.926Z,16.37
2023-04-18T16:49:47.684Z,14.73
2023-04-18T16:52:17.703Z,13.23
2023-04-18T16:54:47.525Z,14.33
2023-04-18T16:57:17.718Z,17.63
2023-04-18T16:59:47.504Z,13.77
2023-04-18T17:02:17.143Z,12.70
2023-04-18T17:04:47.309Z,14.47
2023-04-18T17:07:17.194Z,12.90
2023-04-18T17:09:46.991Z,12.27
2023-04-18T17:12:17.183Z,13.95
2023-04-18T17:14:47.010Z,14.17
2023-04-18T17:17:16.804Z,13.80
2023-04-18T17:19:46.612Z,13.93
2023-04-18T17:22:16.874Z,14.53
2023-04-18T17:24:46.701Z,11.97
2023-04-18T17:27:16.492Z,14.93
2023-04-18T17:29:46.617Z,14.25
2023-04-18T17:32:16.197Z,12.70
2023-04-18T17:34:45.991Z,12.90
2023-04-18T17:37:17.016Z,13.00
2023-04-18T17:39:46.900Z,13.30
2023-04-18T17:42:16.810Z,12.82
2023-04-18T17:44:46.606Z,12.77
2023-04-18T17:47:16.437Z,13.53
2023-04-18T17:49:46.403Z,12.90
2023-04-18T17:52:16.106Z,12.43
2023-04-18T17:54:46.006Z,10.07
2023-04-18T17:57:15.791Z,13.83
2023-04-18T17:59:45.628Z,10.03
2023-04-18T18:02:15.188Z,12.95
2023-04-18T18:04:45.574Z,12.83
2023-04-18T18:07:15.570Z,10.50
2023-04-18T18:09:45.548Z,11.13
2023-04-18T18:12:15.655Z,11.63
2023-04-18T18:14:45.456Z,11.50
2023-04-18T18:17:15.351Z,11.07
2023-04-18T18:19:44.942Z,13.35
2023-04-18T18:22:14.461Z,12.43
2023-04-18T18:24:44.032Z,11.35
2023-04-18T18:27:13.879Z,12.83
2023-04-18T18:29:43.700Z,12.63
2023-04-18T18:32:13.253Z,13.37
2023-04-18T18:34:43.151Z,14.87
2023-04-18T18:37:12.944Z,12.30
2023-04-18T18:39:42.789Z,19.27
2023-04-18T18:42:13.083Z,12.07
2023-04-18T18:44:42.970Z,11.20
2023-04-18T18:47:12.811Z,10.43
2023-04-18T18:49:42.641Z,12.47
2023-04-18T18:52:13.285Z,10.78
2023-04-18T18:54:43.112Z,10.13
2023-04-18T18:57:12.939Z,12.73
2023-04-18T18:59:43.313Z,14.63
2023-04-18T19:02:13.523Z,13.93
2023-04-18T19:04:43.738Z,12.78
2023-04-18T19:07:13.628Z,12.70
2023-04-18T19:09:43.809Z,15.08
2023-04-18T19:12:13.492Z,15.23
2023-04-18T19:14:43.316Z,13.13
2023-04-18T19:17:13.299Z,13.47
2023-04-18T19:19:43.504Z,12.13
2023-04-18T19:22:13.138Z,12.90
2023-04-18T19:24:43.057Z,12.70
2023-04-18T19:27:13.169Z,13.73
2023-04-18T19:29:43.080Z,15.77
2023-04-18T19:32:13.230Z,14.33
2023-04-18T19:34:43.043Z,12.67
2023-04-18T19:37:12.871Z,16.33
2023-04-18T19:39:42.452Z,16.35
2023-04-18T19:42:13.172Z,14.55
2023-04-18T19:44:42.976Z,14.23
2023-04-18T19:47:12.808Z,17.43
2023-04-18T19:49:44.288Z,13.35
2023-04-18T19:52:14.191Z,14.25
2023-04-18T19:54:44.000Z,14.93
2023-04-18T19:57:13.828Z,13.13
2023-04-18T19:59:43.638Z,12.60
2023-04-18T20:02:13.549Z,13.37
2023-04-18T20:04:43.999Z,17.50
2023-04-18T20:07:13.995Z,16.97
2023-04-18T20:09:43.801Z,11.83
2023-04-18T20:12:13.346Z,13.73
2023-04-18T20:14:43.135Z,16.93
2023-04-18T20:17:13.346Z,11.90
2023-04-18T20:19:43.449Z,12.27
2023-04-18T20:22:14.849Z,12.33
2023-04-18T20:24:46.399Z,13.63
2023-04-18T20:27:17.945Z,12.47
2023-04-18T20:29:47.949Z,11.00
2023-04-18T20:32:17.757Z,10.70
2023-04-18T20:34:47.575Z,10.77
2023-04-18T20:37:19.020Z,12.97
2023-04-18T20:39:48.810Z,11.23
2023-04-18T20:42:18.625Z,9.98
2023-04-18T20:44:48.762Z,13.65
2023-04-18T20:47:18.579Z,11.53
2023-04-18T20:49:48.088Z,12.25
2023-04-18T20:52:17.903Z,9.90
2023-04-18T20:54:47.773Z,12.77
2023-04-18T20:57:17.572Z,12.57
2023-04-18T20:59:48.257Z,12.10
2023-04-18T21:02:18.201Z,13.93
2023-04-18T21:04:48.666Z,11.97
2023-04-18T21:07:18.906Z,8.17
2023-04-18T21:09:48.757Z,11.23
2023-04-18T21:12:18.540Z,9.98
2023-04-18T21:14:50.479Z,11.57
2023-04-18T21:17:20.396Z,10.20
2023-04-18T21:19:50.582Z,12.30
2023-04-18T21:22:20.446Z,12.07
2023-04-18T21:24:50.623Z,11.07
2023-04-18T21:27:20.775Z,9.68
2023-04-18T21:29:50.601Z,14.37
2023-04-18T21:32:21.022Z,9.07
2023-04-18T21:34:50.874Z,9.93
2023-04-18T21:37:20.697Z,10.33
2023-04-18T21:39:50.692Z,11.55
2023-04-18T21:42:20.196Z,12.43
2023-04-18T21:44:50.688Z,10.63
2023-04-18T21:47:20.963Z,11.18
2023-04-18T21:49:50.902Z,10.07
2023-04-18T21:52:20.698Z,14.03
2023-04-18T21:54:50.549Z,15.43
2023-04-18T21:57:20.637Z,11.40
2023-04-18T21:59:50.863Z,11.57
2023-04-18T22:02:20.751Z,10.05
2023-04-18T22:04:50.793Z,13.37
2023-04-18T22:07:21.382Z,11.60
2023-04-18T22:09:51.194Z,13.13
2023-04-18T22:12:21.562Z,14.58
2023-04-18T22:14:52.832Z,13.75
2023-04-18T22:17:22.734Z,13.13
2023-04-18T22:19:53.604Z,12.13
2023-04-18T22:22:24.757Z,14.20
2023-04-18T22:24:54.561Z,12.43
2023-04-18T22:27:24.393Z,15.53
2023-04-18T22:29:54.207Z,15.03
2023-04-18T22:32:24.353Z,13.80
2023-04-18T22:34:54.233Z,12.00
2023-04-18T22:37:24.146Z,16.60
2023-04-18T22:39:54.004Z,11.77
2023-04-18T22:42:23.497Z,12.80
2023-04-18T22:44:53.590Z,13.35
2023-04-18T22:47:23.750Z,12.40
2023-04-18T22:49:53.863Z,16.75
2023-04-18T22:52:25.919Z,13.65
2023-04-18T22:54:55.712Z,16.43
2023-04-18T22:57:25.901Z,14.70
2023-04-18T22:59:55.876Z,21.93
2023-04-18T23:02:25.723Z,18.00
2023-04-18T23:04:58.945Z,14.93
2023-04-18T23:07:29.042Z,16.40
2023-04-18T23:09:58.861Z,12.30
2023-04-18T23:12:28.367Z,12.15
2023-04-18T23:14:58.187Z,13.20
2023-04-18T23:17:28.013Z,17.23
2023-04-18T23:19:57.849Z,13.00
2023-04-18T23:22:27.889Z,14.40
2023-04-18T23:24:57.794Z,14.50
2023-04-18T23:27:27.696Z,17.43
2023-04-18T23:29:57.254Z,13.50
2023-04-18T23:32:26.762Z,12.78
2023-04-18T23:34:56.589Z,13.63
2023-04-18T23:37:26.229Z,14.45
2023-04-18T23:39:56.020Z,12.50
2023-04-18T23:42:25.960Z,13.07
2023-04-18T23:44:55.845Z,13.13
2023-04-18T23:47:25.485Z,11.50
2023-04-18T23:49:55.591Z,13.55
2023-04-18T23:52:25.454Z,16.02
2023-04-18T23:54:55.605Z,14.75
2023-04-18T23:57:25.680Z,14.68
2023-04-18T23:59:55.527Z,11.77
